createdAt,value
2018-11-14T00:03:12.803Z,87.48
2018-11-14T00:08:31.272Z,88.15
2018-11-14T00:13:49.780Z,88.06
2018-11-14T00:19:08.342Z,88.18
2018-11-14T00:24:26.955Z,87.60
2018-11-14T00:29:46.088Z,88.19
2018-11-14T00:35:05.192Z,88.09
2018-11-14T00:40:23.684Z,89.11
2018-11-14T00:45:42.207Z,88.53
2018-11-14T00:51:00.743Z,89.06
2018-11-14T00:56:19.246Z,89.06
2018-11-14T01:01:37.853Z,89.01
2018-11-14T01:06:56.405Z,88.82
2018-11-14T01:12:14.998Z,88.67
2018-11-14T01:17:33.640Z,88.90
2018-11-14T01:22:52.174Z,88.69
2018-11-14T01:28:11.399Z,88.10
2018-11-14T01:33:30.562Z,88.34
2018-11-14T01:38:49.167Z,88.53
2018-11-14T01:44:08.020Z,88.37
2018-11-14T01:49:26.512Z,88.94
2018-11-14T01:54:45.012Z,88.86
2018-11-14T02:00:03.720Z,89.13
2018-11-14T02:05:22.241Z,88.70
2018-11-14T02:10:40.755Z,88.16
2018-11-14T02:15:59.308Z,88.42
2018-11-14T02:21:17.890Z,88.27
2018-11-14T02:26:36.435Z,89.08
2018-11-14T02:31:54.912Z,88.64
2018-11-14T02:37:13.579Z,89.34
2018-11-14T02:42:32.660Z,89.28
2018-11-14T02:47:51.202Z,89.66
2018-11-14T02:53:09.741Z,89.67
2018-11-14T02:58:29.163Z,89.59
2018-11-14T03:03:47.849Z,89.99
2018-11-14T03:09:09.663Z,89.81
2018-11-14T03:14:28.212Z,89.75
2018-11-14T03:19:47.447Z,89.77
2018-11-14T03:25:07.714Z,89.99
2018-11-14T03:30:26.241Z,89.94
2018-11-14T03:35:49.986Z,90.12
2018-11-14T03:41:09.235Z,89.68
2018-11-14T03:46:27.756Z,89.89
2018-11-14T03:51:46.263Z,90.29
2018-11-14T03:57:04.798Z,89.79
2018-11-14T04:02:23.852Z,90.02
2018-11-14T04:07:42.742Z,90.31
2018-11-14T04:13:01.270Z,90.44
2018-11-14T04:18:19.966Z,91.47
2018-11-14T04:23:44.092Z,91.13
2018-11-14T04:29:02.647Z,91.31
2018-11-14T04:34:21.876Z,91.22
2018-11-14T04:39:40.880Z,91.36
2018-11-14T04:44:59.382Z,91.73
2018-11-14T04:50:19.849Z,91.06
2018-11-14T04:55:38.347Z,90.96
2018-11-14T05:00:56.887Z,90.74
2018-11-14T05:06:15.961Z,90.54
2018-11-14T05:11:34.446Z,90.46
2018-11-14T05:16:52.970Z,90.23
2018-11-14T05:22:11.510Z,89.44
2018-11-14T05:27:30.034Z,91.24
2018-11-14T05:32:49.463Z,91.52
2018-11-14T05:38:08.618Z,91.45
2018-11-14T05:43:27.973Z,90.87
2018-11-14T05:48:46.587Z,91.23
2018-11-14T05:54:05.886Z,91.13
2018-11-14T05:59:25.915Z,90.70
2018-11-14T06:04:44.406Z,91.03
2018-11-14T06:10:03.140Z,90.37
2018-11-14T06:15:22.527Z,91.33
2018-11-14T06:20:41.071Z,91.48
2018-11-14T06:26:00.295Z,91.21
2018-11-14T06:31:19.305Z,90.50
2018-11-14T06:36:37.823Z,92.23
2018-11-14T06:41:56.348Z,90.73
2018-11-14T06:47:14.887Z,90.72
2018-11-14T06:52:33.411Z,91.02
2018-11-14T06:57:53.205Z,91.20
2018-11-14T07:03:11.697Z,91.44
2018-11-14T07:08:31.447Z,92.24
2018-11-14T07:13:49.914Z,91.75
2018-11-14T07:19:08.471Z,91.80
2018-11-14T07:24:27.064Z,91.28
2018-11-14T07:29:45.559Z,91.04
2018-11-14T07:35:04.203Z,91.38
2018-11-14T07:40:23.409Z,91.50
2018-11-14T07:45:43.401Z,92.36
2018-11-14T07:51:02.371Z,92.20
2018-11-14T07:56:21.701Z,91.51
2018-11-14T08:01:40.203Z,91.27
2018-11-14T08:06:58.733Z,90.96
2018-11-14T08:12:17.263Z,91.53
2018-11-14T08:17:36.496Z,91.92
2018-11-14T08:22:55.251Z,91.63
2018-11-14T08:28:13.932Z,91.54
2018-11-14T08:33:32.415Z,92.97
2018-11-14T08:38:50.980Z,92.75
2018-11-14T08:44:09.486Z,91.48
2018-11-14T08:49:28.034Z,91.26
2018-11-14T08:54:46.553Z,91.63
2018-11-14T09:00:09.359Z,90.06
2018-11-14T09:05:28.048Z,89.18
2018-11-14T09:10:47.288Z,89.00
2018-11-14T09:16:06.196Z,88.09
2018-11-14T09:21:24.773Z,87.36
2018-11-14T09:26:43.284Z,85.77
2018-11-14T09:32:01.785Z,85.52
2018-11-14T09:37:20.991Z,84.95
2018-11-14T09:42:39.643Z,84.57
2018-11-14T09:47:58.434Z,84.20
2018-11-14T09:53:17.849Z,83.16
2018-11-14T09:58:36.523Z,82.40
2018-11-14T10:03:55.006Z,81.74
2018-11-14T10:09:14.300Z,80.51
2018-11-14T10:14:33.527Z,80.79
2018-11-14T10:19:52.084Z,78.22
2018-11-14T10:25:11.820Z,79.56
2018-11-14T10:30:30.496Z,78.97
2018-11-14T10:35:49.627Z,78.03
2018-11-14T10:41:08.751Z,77.52
2018-11-14T10:46:27.365Z,76.82
2018-11-14T10:51:45.907Z,75.54
2018-11-14T10:57:04.538Z,74.48
2018-11-14T11:02:28.614Z,73.12
2018-11-14T11:07:52.434Z,73.40
2018-11-14T11:13:16.153Z,73.95
2018-11-14T11:18:35.186Z,73.51
2018-11-14T11:23:53.707Z,72.92
2018-11-14T11:29:12.559Z,72.99
2018-11-14T11:34:32.163Z,72.35
2018-11-14T11:39:51.627Z,72.25
2018-11-14T11:45:10.137Z,73.03
2018-11-14T11:50:28.995Z,72.34
2018-11-14T11:55:47.486Z,70.49
2018-11-14T12:01:06.313Z,70.54
2018-11-14T12:06:25.340Z,71.51
2018-11-14T12:11:43.723Z,71.11
2018-11-14T12:17:02.277Z,70.13
2018-11-14T12:22:21.433Z,71.03
2018-11-14T12:27:40.231Z,70.46
2018-11-14T12:32:58.721Z,70.10
2018-11-14T12:38:17.202Z,70.73
2018-11-14T12:43:35.720Z,69.95
2018-11-14T12:48:54.260Z,69.09
2018-11-14T12:54:12.745Z,70.39
2018-11-14T12:59:31.332Z,70.14
2018-11-14T13:04:49.923Z,69.12
2018-11-14T13:10:10.009Z,69.53
2018-11-14T13:15:29.004Z,69.12
2018-11-14T13:20:47.616Z,69.47
2018-11-14T13:26:06.940Z,69.69
2018-11-14T13:31:25.513Z,70.21
2018-11-14T13:36:44.676Z,71.16
2018-11-14T13:42:03.245Z,70.67
2018-11-14T13:47:21.758Z,69.98
2018-11-14T13:52:40.447Z,71.16
2018-11-14T13:57:58.943Z,70.80
2018-11-14T14:03:17.538Z,71.15
2018-11-14T14:08:36.641Z,71.45
2018-11-14T14:14:00.263Z,73.08
2018-11-14T14:19:18.816Z,72.66
2018-11-14T14:24:37.308Z,73.29
2018-11-14T14:29:55.815Z,73.79
2018-11-14T14:35:15.406Z,74.63
2018-11-14T14:40:33.944Z,74.99
2018-11-14T14:45:52.458Z,74.76
2018-11-14T14:51:10.999Z,75.87
2018-11-14T14:56:30.341Z,76.79
2018-11-14T15:01:48.782Z,77.27
2018-11-14T15:07:07.363Z,77.62
2018-11-14T15:12:25.868Z,78.26
2018-11-14T15:17:44.706Z,78.45
2018-11-14T15:23:03.355Z,78.63
2018-11-14T15:28:21.865Z,78.97
2018-11-14T15:33:40.366Z,79.14
2018-11-14T15:38:58.868Z,79.28
2018-11-14T15:44:18.532Z,79.42
2018-11-14T15:49:37.085Z,79.60
2018-11-14T15:54:55.584Z,79.32
2018-11-14T16:00:19.496Z,79.44
2018-11-14T16:05:38.066Z,78.88
2018-11-14T16:10:57.009Z,79.18
2018-11-14T16:16:16.041Z,79.17
2018-11-14T16:21:34.856Z,79.48
2018-11-14T16:26:53.812Z,79.27
2018-11-14T16:32:13.137Z,82.21
2018-11-14T16:37:33.949Z,76.86
2018-11-14T16:42:54.186Z,78.11
2018-11-14T16:48:12.743Z,78.27
2018-11-14T16:53:31.495Z,77.83
2018-11-14T16:58:50.332Z,77.70
2018-11-14T17:04:11.331Z,77.88
2018-11-14T17:09:30.003Z,78.27
2018-11-14T17:14:49.109Z,78.03
2018-11-14T17:20:08.226Z,78.21
2018-11-14T17:25:26.844Z,78.69
2018-11-14T17:30:46.159Z,78.81
2018-11-14T17:36:05.358Z,79.49
2018-11-14T17:41:24.496Z,79.60
2018-11-14T17:46:43.076Z,79.76
2018-11-14T17:52:02.147Z,80.51
2018-11-14T17:57:20.675Z,80.28
2018-11-14T18:02:40.351Z,81.20
2018-11-14T18:07:59.205Z,81.22
2018-11-14T18:13:17.743Z,81.67
2018-11-14T18:18:38.072Z,81.58
2018-11-14T18:23:57.234Z,82.32
2018-11-14T18:29:15.745Z,82.54
2018-11-14T18:34:34.898Z,82.67
2018-11-14T18:39:53.436Z,82.59
2018-11-14T18:45:17.324Z,82.50
2018-11-14T18:50:36.384Z,81.65
2018-11-14T18:55:55.033Z,81.79
2018-11-14T19:01:13.587Z,81.58
2018-11-14T19:06:32.772Z,81.80
2018-11-14T19:11:51.399Z,81.86
2018-11-14T19:17:09.922Z,81.58
2018-11-14T19:22:29.078Z,81.78
2018-11-14T19:27:48.163Z,82.17
2018-11-14T19:33:07.314Z,82.38
2018-11-14T19:38:25.890Z,82.41
2018-11-14T19:43:45.761Z,83.04
2018-11-14T19:49:04.393Z,83.27
2018-11-14T19:54:23.414Z,83.01
2018-11-14T19:59:41.973Z,83.19
2018-11-14T20:05:00.734Z,83.66
2018-11-14T20:10:22.457Z,83.66
2018-11-14T20:15:41.009Z,83.43
2018-11-14T20:21:00.222Z,83.78
2018-11-14T20:26:18.837Z,83.92
2018-11-14T20:31:37.355Z,85.00
2018-11-14T20:36:55.805Z,84.79
2018-11-14T20:42:16.743Z,85.17
2018-11-14T20:47:35.871Z,85.27
2018-11-14T20:52:56.290Z,85.53
2018-11-14T20:58:14.849Z,85.51
2018-11-14T21:03:33.422Z,85.76
2018-11-14T21:08:52.130Z,85.30
2018-11-14T21:14:10.754Z,86.06
2018-11-14T21:19:29.362Z,85.93
2018-11-14T21:24:49.427Z,86.54
2018-11-14T21:30:10.551Z,86.76
2018-11-14T21:35:31.565Z,87.47
2018-11-14T21:40:50.143Z,86.70
2018-11-14T21:46:08.771Z,87.28
2018-11-14T21:51:27.400Z,87.32
2018-11-14T21:56:46.077Z,87.52
2018-11-14T22:02:04.826Z,87.78
2018-11-14T22:07:24.659Z,87.34
2018-11-14T22:12:44.002Z,87.15
2018-11-14T22:18:03.118Z,87.76
2018-11-14T22:23:21.738Z,88.30
2018-11-14T22:28:40.305Z,88.13
2018-11-14T22:33:58.935Z,88.07
2018-11-14T22:39:19.123Z,88.40
2018-11-14T22:44:37.947Z,88.57
2018-11-14T22:49:56.547Z,88.36
2018-11-14T22:55:16.780Z,88.36
2018-11-14T23:00:45.842Z,88.18
2018-11-14T23:06:04.358Z,88.28
2018-11-14T23:11:22.859Z,88.73
2018-11-14T23:16:41.819Z,89.04
2018-11-14T23:22:00.382Z,88.95
2018-11-14T23:27:18.904Z,89.11
2018-11-14T23:32:37.577Z,89.23
2018-11-14T23:38:00.974Z,89.15
2018-11-14T23:43:20.791Z,88.86
2018-11-14T23:48:39.293Z,89.50
2018-11-14T23:53:57.802Z,88.77
2018-11-14T23:59:16.314Z,88.82
